Time;durP1;ratioP1;P1;durP2;ratioP2;P2;SDS_P1;SDS_P2;PMS_P1;PMS_P2;Temp;Humidity;BMP_temperature;BMP_pressure;BME280_temperature;BME280_humidity;BME280_pressure;Samples;Min_cycle;Max_cycle;Signal;HPM_P1;HPM_P2
2021/03/27 00:01:55;;;;;;;47.70;35.33;;;5.10;99.90;;;2.97;100.00;100222.47;4948700;28;100430;-59
2021/03/27 00:04:36;;;;;;;50.73;36.83;;;5.00;99.90;;;2.92;100.00;100224.63;4949011;28;100878;-58
2021/03/27 00:07:12;;;;;;;47.43;37.00;;;5.00;99.90;;;2.91;100.00;100232.66;4949866;28;100285;-58
2021/03/27 00:09:43;;;;;;;45.60;37.00;;;5.00;99.90;;;2.79;100.00;100224.66;4949373;28;99982;-57
2021/03/27 00:12:24;;;;;;;50.00;38.47;;;4.90;99.90;;;2.75;100.00;100222.34;4949318;28;100241;-58
2021/03/27 00:14:56;;;;;;;50.07;36.87;;;4.80;99.90;;;2.67;100.00;100212.34;4930895;28;100575;-58
2021/03/27 00:17:38;;;;;;;50.47;37.70;;;4.80;99.90;;;2.66;100.00;100208.00;4929372;28;100090;-59
2021/03/27 00:20:15;;;;;;;45.77;37.27;;;4.70;99.90;;;2.62;100.00;100205.69;4929911;28;100009;-57
2021/03/27 00:22:48;;;;;;;52.60;37.73;;;4.70;99.90;;;2.61;100.00;100204.84;4930459;28;100360;-59
2021/03/27 00:25:19;;;;;;;50.40;38.23;;;4.60;99.90;;;2.57;100.00;100207.81;4928443;28;100800;-59
2021/03/27 00:28:04;;;;;;;46.73;36.17;;;4.60;99.90;;;2.58;100.00;100198.94;4927747;28;100906;-58
2021/03/27 00:30:40;;;;;;;48.93;35.90;;;4.60;99.90;;;2.61;100.00;100201.34;4929280;28;100242;-58
2021/03/27 00:33:07;;;;;;;46.43;35.30;;;4.50;99.90;;;2.53;100.00;100192.19;4929741;28;100260;-57
2021/03/27 00:35:39;;;;;;;44.40;36.40;;;4.50;99.90;;;2.48;100.00;100191.66;4929476;28;99753;-59
2021/03/27 00:38:13;;;;;;;45.87;35.77;;;4.50;99.90;;;2.45;100.00;100183.97;4928697;28;100657;-57
2021/03/27 00:40:45;;;;;;;46.70;35.87;;;4.50;99.90;;;2.44;100.00;100187.56;4929686;28;99981;-59
2021/03/27 00:43:18;;;;;;;48.90;36.93;;;4.40;99.90;;;2.44;100.00;100182.28;4931485;28;100358;-58
2021/03/27 00:46:24;;;;;;;49.40;36.87;;;4.40;99.90;;;2.44;100.00;100179.66;4928421;28;101735;-59
2021/03/27 00:49:43;;;;;;;46.13;35.83;;;4.40;99.90;;;2.37;100.00;100180.16;4945599;28;100158;-59
2021/03/27 00:53:05;;;;;;;50.73;35.67;;;4.40;99.90;;;2.35;100.00;100175.00;4953046;28;100162;-58
2021/03/27 00:56:20;;;;;;;47.13;36.87;;;4.30;99.90;;;2.23;100.00;100167.09;4927904;28;100056;-59
2021/03/27 00:59:37;;;;;;;51.43;37.00;;;4.20;99.90;;;2.13;100.00;100166.91;4928934;28;101222;-59
2021/03/27 01:02:59;;;;;;;47.67;36.37;;;4.20;99.90;;;2.11;100.00;100159.09;4927474;28;100214;-58
2021/03/27 01:10:31;;;;;;;49.30;36.50;;;4.10;99.90;;;2.01;100.00;100146.66;4887839;28;100315;-58
2021/03/27 01:14:01;;;;;;;48.50;35.83;;;4.00;99.90;;;1.95;100.00;100142.66;4946688;28;101314;-59
2021/03/27 01:17:15;;;;;;;48.70;37.37;;;3.90;99.90;;;1.99;100.00;100141.47;4948524;28;99795;-58
2021/03/27 01:20:33;;;;;;;47.23;33.77;;;3.90;99.90;;;1.94;100.00;100138.34;4950133;28;99959;-58
2021/03/27 01:24:14;;;;;;;44.10;33.50;;;3.90;99.90;;;1.94;100.00;100126.94;4933300;28;100078;-59
2021/03/27 01:27:34;;;;;;;47.17;35.47;;;3.90;99.90;;;1.95;100.00;100128.63;4893754;28;99981;-58
2021/03/27 01:34:38;;;;;;;47.87;34.87;;;3.80;99.90;;;1.81;100.00;100121.66;4913594;28;99775;-58
2021/03/27 01:38:37;;;;;;;48.43;34.97;;;3.80;99.90;;;1.75;100.00;100114.16;4936378;28;99513;-58
2021/03/27 01:41:56;;;;;;;45.80;35.57;;;3.70;99.90;;;1.94;100.00;100116.38;4877653;28;99751;-59
2021/03/27 01:45:39;;;;;;;40.30;31.93;;;3.70;99.90;;;1.91;100.00;100119.22;4887461;28;100275;-58
2021/03/27 01:49:00;;;;;;;43.80;34.30;;;3.60;99.90;;;1.90;100.00;100115.75;4886249;28;100029;-59
2021/03/27 01:56:24;;;;;;;45.27;35.37;;;3.60;99.90;;;1.80;100.00;100112.91;4930507;28;100326;-58
2021/03/27 02:07:57;;;;;;;41.63;32.93;;;3.60;99.90;;;1.87;100.00;100108.03;4932926;28;100143;-59
2021/03/27 02:11:15;;;;;;;47.73;34.67;;;3.60;99.90;;;1.81;100.00;100105.84;4931699;28;100140;-57
2021/03/27 02:14:37;;;;;;;45.23;35.20;;;3.50;99.90;;;1.74;100.00;100100.13;4935802;28;100386;-59
2021/03/27 02:34:04;;;;;;;39.83;31.73;;;3.40;99.90;;;1.64;100.00;100101.72;4902245;28;100167;-58
2021/03/27 02:37:26;;;;;;;40.60;32.73;;;3.40;99.90;;;1.60;100.00;100108.19;4936009;28;100427;-58
2021/03/27 02:40:57;;;;;;;39.90;30.83;;;3.40;99.90;;;1.67;100.00;100105.94;4936297;28;100118;-59
2021/03/27 02:44:27;;;;;;;43.70;34.50;;;3.50;99.90;;;1.59;100.00;100105.66;4923649;28;100148;-60
2021/03/27 02:55:26;;;;;;;39.10;32.80;;;3.70;99.90;;;1.98;100.00;100107.31;4960221;28;99795;-58
2021/03/27 02:59:02;;;;;;;41.80;32.20;;;3.90;99.90;;;1.81;100.00;100113.75;4960965;28;99680;-57
2021/03/27 03:02:00;;;;;;;41.27;33.77;;;4.00;99.90;;;1.98;100.00;100097.56;4912191;28;98716;-59
2021/03/27 03:04:42;;;;;;;41.63;33.73;;;4.00;99.90;;;2.04;100.00;100096.31;4962564;28;99332;-59
2021/03/27 03:07:16;;;;;;;42.93;33.30;;;4.10;99.90;;;2.24;100.00;100102.78;4983100;28;84011;-59
2021/03/27 03:09:51;;;;;;;44.20;36.60;;;4.20;99.90;;;2.16;100.00;100098.91;4983392;28;83096;-58
2021/03/27 03:12:32;;;;;;;41.47;33.50;;;4.20;99.90;;;2.25;100.00;100102.69;4985433;28;94122;-59
2021/03/27 03:15:14;;;;;;;38.50;32.43;;;4.30;99.90;;;2.41;100.00;100095.34;4994503;28;78697;-59
2021/03/27 03:17:48;;;;;;;40.23;31.97;;;4.40;99.90;;;2.46;100.00;100101.16;5003868;28;53875;-58
2021/03/27 03:20:22;;;;;;;39.77;32.43;;;4.40;99.90;;;2.59;100.00;100106.41;4992954;28;74443;-59
2021/03/27 03:23:00;;;;;;;40.83;32.23;;;4.40;99.90;;;2.52;100.00;100105.97;5003888;28;54824;-59
2021/03/27 03:25:32;;;;;;;38.37;32.70;;;4.50;99.90;;;2.53;100.00;100107.69;5011806;28;42467;-56
2021/03/27 03:28:21;;;;;;;38.53;30.97;;;4.60;99.90;;;2.57;100.00;100110.94;5010617;28;47586;-59
2021/03/27 03:31:06;;;;;;;42.70;32.27;;;4.60;99.90;;;2.55;100.00;100107.56;5009046;28;45760;-59
2021/03/27 03:34:08;;;;;;;41.30;31.03;;;4.60;99.90;;;2.55;100.00;100104.94;5011715;28;47842;-59
2021/03/27 03:36:49;;;;;;;39.30;31.67;;;4.60;99.90;;;2.53;100.00;100105.03;5009526;28;38960;-59
2021/03/27 03:39:29;;;;;;;38.37;32.33;;;4.60;99.90;;;2.50;100.00;100102.59;5004417;28;55388;-59
2021/03/27 03:42:05;;;;;;;41.40;33.10;;;4.70;99.90;;;2.51;100.00;100093.72;5003746;28;53168;-58
2021/03/27 03:44:53;;;;;;;35.73;28.20;;;4.70;99.90;;;2.71;100.00;100102.00;4982117;28;54198;-57
2021/03/27 03:47:32;;;;;;;38.63;31.37;;;4.70;99.90;;;2.67;100.00;100097.91;4978356;28;72717;-59
2021/03/27 03:50:31;;;;;;;37.60;30.23;;;4.80;99.90;;;2.73;100.00;100103.56;4983320;28;58035;-57
2021/03/27 03:53:29;;;;;;;38.80;30.90;;;4.80;99.90;;;2.76;100.00;100102.50;4980751;28;73350;-58
2021/03/27 03:56:13;;;;;;;38.57;30.43;;;4.80;99.90;;;2.74;100.00;100093.84;4976056;28;75424;-58
2021/03/27 03:59:09;;;;;;;34.47;27.13;;;4.90;99.90;;;2.91;100.00;100098.72;4972610;28;76944;-59
2021/03/27 04:01:46;;;;;;;36.37;28.97;;;4.90;99.90;;;2.85;100.00;100099.16;4971397;28;78976;-60
2021/03/27 04:04:21;;;;;;;35.00;29.33;;;5.00;99.90;;;2.89;100.00;100098.84;4983716;28;58459;-58
2021/03/27 04:06:53;;;;;;;35.30;29.03;;;5.00;99.90;;;2.93;100.00;100098.63;4980937;28;54144;-59
2021/03/27 04:09:26;;;;;;;36.47;29.43;;;5.10;99.90;;;2.87;100.00;100099.91;4975814;28;65272;-59
2021/03/27 04:12:20;;;;;;;33.33;28.47;;;5.10;99.90;;;2.87;100.00;100102.53;4996658;28;56116;-59
2021/03/27 04:15:01;;;;;;;37.77;28.93;;;5.10;99.90;;;2.84;100.00;100093.03;5011552;28;47002;-57
2021/03/27 04:17:42;;;;;;;36.70;28.70;;;5.20;99.90;;;2.80;100.00;100096.88;5007593;28;51285;-59
2021/03/27 04:20:18;;;;;;;36.40;27.60;;;5.10;99.90;;;2.69;100.00;100096.84;5003464;28;49452;-58
2021/03/27 04:22:47;;;;;;;34.27;26.83;;;5.10;99.90;;;2.76;100.00;100091.94;5003040;28;46320;-59
2021/03/27 04:25:25;;;;;;;29.73;25.10;;;5.10;99.90;;;2.92;100.00;100097.78;5002616;28;52911;-59
2021/03/27 04:28:04;;;;;;;32.40;27.10;;;5.10;99.90;;;2.82;100.00;100087.06;5001674;28;60077;-58
2021/03/27 04:30:54;;;;;;;30.67;24.63;;;5.10;99.90;;;2.86;100.00;100088.50;5005618;28;48004;-59
2021/03/27 04:33:38;;;;;;;30.87;24.77;;;5.10;99.90;;;3.04;100.00;100088.09;5008673;28;48383;-59
2021/03/27 04:36:10;;;;;;;33.03;26.07;;;5.10;99.90;;;2.99;100.00;100083.13;5003917;28;53005;-59
2021/03/27 04:38:43;;;;;;;29.03;25.27;;;5.10;99.90;;;2.99;100.00;100091.06;5004849;28;46987;-59
2021/03/27 04:41:37;;;;;;;31.40;26.23;;;5.10;99.90;;;2.95;100.00;100088.78;4987545;28;48166;-58
2021/03/27 04:44:18;;;;;;;29.50;25.87;;;5.20;99.90;;;2.93;100.00;100080.13;4984012;28;48227;-59
2021/03/27 04:46:53;;;;;;;31.70;26.80;;;5.20;99.90;;;2.89;100.00;100085.63;4978452;28;68835;-58
2021/03/27 04:49:30;;;;;;;25.63;21.37;;;5.20;99.90;;;3.13;100.00;100079.44;4981812;28;58882;-58
2021/03/27 04:52:07;;;;;;;27.20;24.30;;;5.20;99.90;;;3.04;100.00;100088.09;4982065;28;50208;-60
2021/03/27 04:55:00;;;;;;;31.97;26.33;;;5.20;99.90;;;2.88;100.00;100093.66;4988656;28;53698;-59
2021/03/27 04:57:46;;;;;;;31.07;23.90;;;5.20;99.90;;;2.94;100.00;100095.03;4992440;28;39915;-57
2021/03/27 05:00:49;;;;;;;26.30;22.40;;;5.10;99.90;;;3.12;100.00;100090.97;4995382;28;42510;-59
2021/03/27 05:03:26;;;;;;;29.10;23.23;;;5.10;99.90;;;3.03;100.00;100092.53;4990773;28;51735;-58
2021/03/27 05:06:02;;;;;;;25.03;21.83;;;5.10;99.90;;;2.97;100.00;100087.69;4988288;28;41957;-60
2021/03/27 05:08:57;;;;;;;28.80;22.87;;;5.10;99.90;;;3.02;100.00;100085.56;5002836;28;52076;-59
2021/03/27 05:11:38;;;;;;;30.33;25.10;;;5.00;99.90;;;3.01;100.00;100081.22;4999637;28;65597;-58
2021/03/27 05:14:21;;;;;;;30.60;23.53;;;5.00;99.90;;;3.10;100.00;100079.69;4999332;28;59428;-57
2021/03/27 05:16:58;;;;;;;24.97;21.03;;;5.00;99.90;;;3.22;100.00;100076.09;5001151;28;61796;-59
2021/03/27 05:19:37;;;;;;;28.83;24.00;;;5.00;99.90;;;3.25;100.00;100081.16;5000319;28;54192;-59
2021/03/27 05:22:24;;;;;;;31.83;25.63;;;5.00;99.90;;;3.01;100.00;100096.25;5000878;28;58225;-60
2021/03/27 05:25:21;;;;;;;34.40;26.97;;;5.00;99.90;;;2.92;100.00;100094.28;4999127;28;55409;-59
2021/03/27 05:28:05;;;;;;;31.40;24.13;;;5.00;99.90;;;2.92;100.00;100092.50;4998655;28;56383;-59
2021/03/27 05:30:46;;;;;;;34.73;27.50;;;4.90;99.90;;;3.01;100.00;100086.50;5001382;28;53242;-59
2021/03/27 05:33:36;;;;;;;28.87;24.00;;;4.90;99.90;;;3.14;100.00;100076.69;4992849;28;61294;-59
2021/03/27 05:36:28;;;;;;;28.70;24.57;;;4.90;99.90;;;3.31;100.00;100086.00;4986911;28;59132;-59
2021/03/27 05:39:28;;;;;;;27.30;24.17;;;5.00;99.90;;;3.49;100.00;100083.72;4982123;28;68467;-59
2021/03/27 05:42:45;;;;;;;26.97;23.77;;;5.00;99.90;;;3.72;100.00;100080.16;4978565;28;66852;-59
2021/03/27 05:46:09;;;;;;;29.60;25.07;;;5.20;99.90;;;4.08;100.00;100097.59;4917037;28;60796;-58
2021/03/27 05:49:15;;;;;;;29.23;24.67;;;5.40;99.90;;;4.42;100.00;100089.63;4982032;28;58598;-58
2021/03/27 05:52:28;;;;;;;28.57;22.60;;;5.60;99.90;;;4.74;100.00;100092.28;4980851;28;67062;-60
2021/03/27 05:55:45;;;;;;;32.20;26.53;;;5.90;99.90;;;5.03;100.00;100091.56;4979706;28;73690;-59
2021/03/27 05:58:52;;;;;;;32.40;25.90;;;6.20;99.90;;;5.30;100.00;100098.19;4989060;28;46720;-60
2021/03/27 06:01:41;;;;;;;27.07;22.57;;;6.40;99.90;;;5.07;100.00;100086.84;4992032;28;41423;-59
2021/03/27 06:04:40;;;;;;;23.37;18.93;;;6.60;99.90;;;5.94;100.00;100080.25;4999745;28;47508;-59
2021/03/27 06:07:55;;;;;;;17.87;15.07;;;6.80;99.90;;;6.35;100.00;100081.94;5006721;28;48156;-60
2021/03/27 06:10:39;;;;;;;17.63;13.17;;;7.00;99.90;;;6.79;100.00;100088.59;5013977;28;42106;-59
2021/03/27 06:13:38;;;;;;;13.83;12.27;;;7.30;99.90;;;7.21;100.00;100085.66;5005017;28;47529;-58
2021/03/27 06:16:21;;;;;;;15.43;11.10;;;7.50;99.90;;;7.64;100.00;100087.00;4971355;28;53395;-59
2021/03/27 06:19:46;;;;;;;11.93;9.97;;;7.80;99.90;;;7.90;100.00;100080.88;5004586;28;49230;-60
2021/03/27 06:22:45;;;;;;;12.83;10.00;;;8.10;99.90;;;8.31;100.00;100084.03;5005839;28;55031;-60
2021/03/27 06:25:45;;;;;;;12.10;8.53;;;8.40;99.90;;;8.70;100.00;100078.50;5003103;28;51023;-58
2021/03/27 06:28:41;;;;;;;11.40;8.53;;;8.70;99.90;;;8.94;100.00;100076.91;5007355;28;49904;-60
2021/03/27 06:31:25;;;;;;;11.20;8.33;;;9.00;99.90;;;9.24;100.00;100080.19;5001490;28;48644;-60
2021/03/27 06:34:44;;;;;;;10.07;8.10;;;9.30;99.90;;;9.39;100.00;100077.81;5002266;28;41120;-60
2021/03/27 06:37:42;;;;;;;11.07;7.87;;;9.60;99.90;;;9.52;100.00;100079.03;5006407;28;46453;-59
2021/03/27 06:40:46;;;;;;;11.37;7.40;;;9.90;99.90;;;9.61;100.00;100071.94;5002813;28;48750;-58
2021/03/27 06:43:35;;;;;;;9.63;7.60;;;10.20;99.90;;;9.77;100.00;100069.34;5000071;28;49396;-60
2021/03/27 06:46:36;;;;;;;12.43;7.33;;;10.40;99.90;;;9.94;100.00;100076.47;5007404;28;44442;-58
2021/03/27 06:50:03;;;;;;;10.23;7.60;;;10.60;99.90;;;10.02;100.00;100075.66;5004780;28;47706;-61
2021/03/27 06:53:19;;;;;;;12.07;7.77;;;10.80;99.90;;;10.22;100.00;100077.16;5008016;28;45342;-60
2021/03/27 06:56:33;;;;;;;11.07;6.47;;;10.90;99.90;;;10.29;100.00;100080.84;5007159;28;41149;-60
2021/03/27 06:59:18;;;;;;;11.20;7.03;;;11.10;99.90;;;10.36;100.00;100083.72;4967699;28;46165;-58
2021/03/27 07:02:32;;;;;;;10.70;7.13;;;11.30;99.90;;;10.36;100.00;100078.38;5005922;28;42415;-60
2021/03/27 07:05:54;;;;;;;9.90;7.40;;;11.40;99.90;;;10.50;100.00;100082.25;5005618;28;43552;-60
2021/03/27 07:08:51;;;;;;;9.87;7.50;;;11.50;99.90;;;10.65;100.00;100089.47;5004304;28;44987;-60
2021/03/27 07:11:46;;;;;;;8.47;7.13;;;11.60;99.70;;;10.82;100.00;100081.50;5006682;28;44641;-60
2021/03/27 07:15:24;;;;;;;8.43;6.70;;;11.80;98.60;;;11.00;100.00;100093.72;5002534;28;50908;-57
2021/03/27 07:18:58;;;;;;;9.87;7.30;;;11.90;97.30;;;11.25;100.00;100107.16;4985098;28;48363;-56
2021/03/27 07:22:27;;;;;;;9.73;7.20;;;12.20;94.70;;;11.29;100.00;100113.84;5005727;28;50143;-59
2021/03/27 07:26:03;;;;;;;10.83;7.40;;;12.40;94.60;;;11.43;100.00;100126.56;5003702;28;44246;-58
2021/03/27 07:33:06;;;;;;;11.93;8.23;;;12.70;92.10;;;11.47;100.00;100136.78;5006044;28;47850;-58
2021/03/27 07:37:02;;;;;;;7.60;5.67;;;12.80;92.60;;;11.54;100.00;100153.03;5006037;28;37972;-58
2021/03/27 07:40:33;;;;;;;12.33;7.53;;;12.80;92.40;;;11.45;100.00;100160.22;4852786;28;45187;-59
2021/03/27 07:44:13;;;;;;;16.10;9.77;;;12.80;92.90;;;11.30;100.00;100166.41;4945347;28;45100;-57
2021/03/27 07:47:54;;;;;;;14.20;10.70;;;12.70;94.90;;;11.17;100.00;100166.88;5003575;28;46587;-57
2021/03/27 07:51:23;;;;;;;16.73;10.87;;;12.50;96.30;;;11.10;100.00;100195.34;4990000;28;59860;-59
2021/03/27 07:54:52;;;;;;;15.40;11.40;;;12.30;98.30;;;11.03;100.00;100205.00;4997249;28;53555;-59
2021/03/27 07:58:24;;;;;;;12.33;9.17;;;12.20;99.70;;;10.85;100.00;100233.75;4990490;28;55313;-58
2021/03/27 08:06:08;;;;;;;19.10;11.57;;;11.90;99.90;;;9.35;100.00;100265.03;4900589;28;56712;-58
2021/03/27 08:09:58;;;;;;;12.87;9.70;;;11.40;99.90;;;9.02;100.00;100279.00;4996787;28;53731;-58
2021/03/27 08:13:58;;;;;;;15.93;10.43;;;10.90;99.90;;;8.61;100.00;100294.47;4950042;28;53285;-57
2021/03/27 08:17:44;;;;;;;14.53;10.60;;;10.50;99.90;;;8.31;100.00;100297.31;4861750;28;65161;-57
2021/03/27 08:21:19;;;;;;;15.63;10.77;;;10.10;99.90;;;8.17;100.00;100311.91;4906863;28;71147;-55
2021/03/27 08:24:43;;;;;;;13.77;9.50;;;9.80;99.90;;;8.14;100.00;100314.88;4984652;28;70886;-55
2021/03/27 08:28:25;;;;;;;10.47;7.43;;;9.60;99.90;;;8.06;100.00;100322.72;4995214;28;65501;-55
2021/03/27 08:31:48;;;;;;;10.53;8.00;;;9.50;99.90;;;8.04;100.00;100332.69;4983210;28;92399;-57
2021/03/27 08:35:45;;;;;;;8.67;7.77;;;9.30;99.90;;;8.02;100.00;100336.50;4985760;28;55516;-56
2021/03/27 08:39:26;;;;;;;8.77;6.40;;;9.30;99.90;;;7.82;100.00;100367.59;4933682;28;63743;-55
2021/03/27 08:51:05;;;;;;;5.80;4.77;;;9.00;99.90;;;7.32;100.00;100409.38;4991116;28;61352;-57
2021/03/27 08:54:33;;;;;;;6.50;4.00;;;8.80;99.90;;;7.13;100.00;100426.13;4932765;28;54342;-58
2021/03/27 08:58:17;;;;;;;5.50;3.63;;;8.70;99.90;;;6.97;100.00;100418.59;4994455;28;62670;-57
2021/03/27 09:01:49;;;;;;;4.37;3.67;;;8.60;99.90;;;6.95;100.00;100435.66;4939218;28;70562;-57
2021/03/27 09:05:15;;;;;;;3.93;2.57;;;8.50;99.90;;;6.89;100.00;100430.88;4992952;28;64693;-58
2021/03/27 09:12:48;;;;;;;4.17;2.50;;;8.40;99.90;;;6.83;100.00;100446.38;4960662;28;74770;-58
2021/03/27 09:16:29;;;;;;;3.07;2.47;;;8.30;99.90;;;6.70;100.00;100467.00;4991747;28;65265;-58
2021/03/27 09:23:51;;;;;;;4.17;1.93;;;8.20;99.90;;;6.69;100.00;100491.06;5009897;28;44556;-58
2021/03/27 09:27:37;;;;;;;1.33;1.23;;;8.10;99.90;;;6.77;100.00;100477.97;5015762;28;43443;-59
2021/03/27 09:31:15;;;;;;;2.73;1.47;;;8.10;99.90;;;6.80;100.00;100494.50;4962574;28;33737;-59
2021/03/27 09:34:44;;;;;;;2.37;1.40;;;8.20;99.90;;;6.84;100.00;100524.34;5004096;28;49700;-59
2021/03/27 09:38:26;;;;;;;2.10;1.53;;;8.30;99.90;;;6.83;100.00;100530.66;5006632;28;48708;-59
2021/03/27 09:42:06;;;;;;;1.87;1.53;;;8.30;99.90;;;6.84;100.00;100535.00;5011656;28;43516;-59
2021/03/27 09:45:46;;;;;;;1.30;1.20;;;8.40;99.90;;;6.87;100.00;100536.56;5009859;28;46376;-60
2021/03/27 09:49:18;;;;;;;1.73;1.47;;;8.50;99.90;;;6.93;100.00;100544.84;4978497;28;44305;-59
2021/03/27 09:52:49;;;;;;;1.93;1.10;;;8.60;99.90;;;6.97;100.00;100569.41;5005892;28;38793;-59
2021/03/27 09:56:19;;;;;;;1.80;1.20;;;8.60;99.90;;;6.85;100.00;100560.63;5014163;28;31053;-60
2021/03/27 09:59:55;;;;;;;1.93;1.70;;;8.60;99.90;;;6.82;100.00;100567.03;5019015;28;24950;-60
2021/03/27 10:03:10;;;;;;;1.60;1.47;;;8.60;99.90;;;7.02;100.00;100567.22;5012264;28;33672;-59
2021/03/27 10:06:33;;;;;;;4.27;1.50;;;8.60;99.90;;;7.30;100.00;100584.34;5021403;28;20371;-59
2021/03/27 10:10:01;;;;;;;1.47;1.37;;;8.70;99.90;;;7.49;100.00;100587.97;5011836;28;45167;-59
2021/03/27 10:13:28;;;;;;;1.67;1.40;;;8.80;99.90;;;8.02;100.00;100577.16;5003744;28;47142;-60
2021/03/27 10:16:44;;;;;;;1.30;1.20;;;9.40;99.90;;;8.13;100.00;100578.88;4991015;28;36357;-59
2021/03/27 10:20:15;;;;;;;2.37;1.60;;;10.00;99.90;;;8.50;100.00;100592.47;5020220;28;30225;-57
2021/03/27 10:23:42;;;;;;;2.00;1.80;;;10.40;99.90;;;8.27;100.00;100576.69;5013239;28;41246;-57
2021/03/27 10:26:56;;;;;;;2.17;1.97;;;10.60;99.90;;;8.09;100.00;100599.63;5024528;28;23437;-60
2021/03/27 10:30:15;;;;;;;2.67;2.30;;;10.80;99.90;;;8.46;100.00;100596.41;5026753;28;20260;-59
2021/03/27 10:33:45;;;;;;;2.03;1.87;;;10.80;99.90;;;8.71;100.00;100590.53;5020480;28;25182;-58
2021/03/27 10:41:00;;;;;;;2.90;2.10;;;11.30;99.90;;;8.25;100.00;100599.97;5017391;28;27181;-59
2021/03/27 10:44:16;;;;;;;3.43;2.60;;;11.10;98.10;;;8.34;100.00;100594.81;5016453;28;26846;-59
2021/03/27 10:47:34;;;;;;;6.57;3.90;;;11.00;99.10;;;9.02;100.00;100610.78;5024933;28;22264;-57
2021/03/27 10:50:52;;;;;;;3.10;2.00;;;11.30;99.90;;;9.08;100.00;100600.53;5015908;28;21122;-57
2021/03/27 10:54:24;;;;;;;2.43;2.10;;;11.80;94.60;;;9.64;100.00;100598.75;5025993;28;20603;-58
2021/03/27 10:58:01;;;;;;;2.20;2.00;;;12.30;93.20;;;9.63;100.00;100590.91;5025598;28;22613;-58
2021/03/27 11:01:31;;;;;;;3.37;2.00;;;12.80;91.80;;;9.41;100.00;100605.41;5024108;28;23988;-57
2021/03/27 11:04:57;;;;;;;2.30;2.10;;;13.10;84.20;;;9.07;100.00;100614.84;5015148;28;20284;-57
2021/03/27 11:08:40;;;;;;;2.17;1.90;;;12.90;82.10;;;9.50;100.00;100622.44;5012679;28;21012;-59
2021/03/27 11:12:15;;;;;;;2.20;2.00;;;12.60;83.60;;;9.04;100.00;100633.81;4969553;28;20280;-59
2021/03/27 11:15:47;;;;;;;3.33;2.03;;;12.70;80.50;;;9.31;100.00;100616.13;5019390;28;20996;-58
2021/03/27 11:19:19;;;;;;;2.93;1.83;;;12.60;79.70;;;9.38;100.00;100620.91;5019674;28;20221;-57
2021/03/27 11:30:45;;;;;;;2.33;1.97;;;12.60;74.90;;;10.12;100.00;100651.25;5024159;28;20205;-58
2021/03/27 11:34:16;;;;;;;2.23;1.90;;;12.90;72.30;;;11.03;100.00;100644.97;5021987;28;20428;-59
2021/03/27 11:38:11;;;;;;;2.70;1.80;;;13.40;73.90;;;10.96;100.00;100643.06;5025795;28;20547;-58
2021/03/27 11:41:32;;;;;;;2.67;2.00;;;14.20;68.80;;;10.75;100.00;100621.94;5025554;28;20718;-59
2021/03/27 11:45:01;;;;;;;2.00;1.43;;;14.70;60.10;;;11.11;100.00;100629.00;5021384;28;20416;-59
2021/03/27 11:48:25;;;;;;;1.33;1.23;;;14.90;58.40;;;10.56;100.00;100640.78;5016529;28;20747;-57
2021/03/27 11:55:38;;;;;;;1.73;1.58;;;14.90;54.10;;;10.94;100.00;100637.88;5022383;28;20331;-59
2021/03/27 12:02:47;;;;;;;2.67;1.20;;;14.70;54.60;;;10.42;100.00;100660.84;5024217;28;20229;-59
2021/03/27 12:06:09;;;;;;;1.60;1.48;;;14.40;52.50;;;10.28;100.00;100672.88;5014166;28;20807;-57
2021/03/27 12:09:30;;;;;;;1.63;1.20;;;14.00;54.00;;;10.55;100.00;100672.03;5020590;28;42830;-57
2021/03/27 12:13:10;;;;;;;2.30;1.50;;;13.80;54.40;;;10.22;100.00;100660.09;4972614;28;100356;-55
2021/03/27 12:16:44;;;;;;;1.53;1.10;;;13.60;54.50;;;10.07;100.00;100658.84;4944747;28;100141;-57
2021/03/27 12:20:06;;;;;;;2.23;1.13;;;13.50;53.90;;;10.32;100.00;100654.69;4939886;28;101289;-58
2021/03/27 12:23:27;;;;;;;2.23;1.30;;;13.40;54.20;;;10.20;100.00;100661.22;4943175;28;101262;-58
2021/03/27 12:26:56;;;;;;;2.13;1.37;;;13.60;53.30;;;10.27;100.00;100659.63;4945663;28;100067;-55
2021/03/27 12:30:29;;;;;;;2.10;1.10;;;13.70;52.70;;;10.14;100.00;100659.94;4946095;28;100148;-58
2021/03/27 12:41:13;;;;;;;3.20;1.27;;;13.60;53.50;;;10.67;100.00;100680.72;4940705;28;100239;-56
2021/03/27 12:44:32;;;;;;;1.67;1.10;;;14.00;52.60;;;10.52;100.00;100676.84;4940343;28;100459;-58
2021/03/27 12:47:47;;;;;;;2.03;1.03;;;14.10;52.90;;;10.40;100.00;100671.69;4944352;28;101876;-56
2021/03/27 12:51:25;;;;;;;0.80;0.80;;;14.10;53.10;;;10.20;100.00;100696.84;4936629;28;100911;-57
2021/03/27 12:54:54;;;;;;;4.00;1.07;;;13.90;52.60;;;9.82;100.00;100700.41;4935243;28;100237;-56
2021/03/27 12:58:34;;;;;;;1.57;0.90;;;13.60;53.40;;;9.69;100.00;100698.03;4934210;28;100336;-58
2021/03/27 13:02:15;;;;;;;2.40;1.07;;;13.30;53.60;;;9.94;100.00;100693.91;4937128;28;101698;-57
2021/03/27 13:05:37;;;;;;;1.13;0.90;;;13.10;53.80;;;10.22;100.00;100692.19;4933796;28;100418;-57
2021/03/27 13:08:57;;;;;;;2.30;0.80;;;13.00;54.10;;;10.09;100.00;100684.47;4938751;28;100155;-58
2021/03/27 13:12:16;;;;;;;3.37;0.90;;;13.00;53.50;;;10.27;100.00;100676.53;4941821;28;101108;-57
2021/03/27 13:15:51;;;;;;;2.70;0.70;;;12.90;52.50;;;10.29;100.00;100684.41;4937100;28;101686;-57
2021/03/27 13:19:33;;;;;;;1.37;0.43;;;12.90;52.50;;;10.35;100.00;100679.34;4937275;28;100504;-59
2021/03/27 13:22:57;;;;;;;2.20;0.80;;;12.80;51.80;;;10.22;100.00;100680.66;4916924;28;100854;-57
2021/03/27 13:26:19;;;;;;;6.13;0.80;;;12.70;50.00;;;10.26;100.00;100687.41;4944136;28;100498;-58
2021/03/27 13:33:04;;;;;;;3.60;0.97;;;12.50;50.60;;;10.18;100.00;100679.22;4939862;28;101176;-55
2021/03/27 13:40:20;;;;;;;3.60;1.47;;;12.50;51.90;;;9.86;100.00;100693.81;4913777;28;100335;-58
2021/03/27 13:43:49;;;;;;;1.57;0.73;;;12.40;52.40;;;9.86;100.00;100684.94;4940095;28;101098;-57
2021/03/27 13:47:32;;;;;;;2.83;1.20;;;12.30;51.90;;;9.82;100.00;100708.44;4940518;28;100508;-58
2021/03/27 13:51:10;;;;;;;4.87;0.80;;;12.20;52.20;;;8.44;100.00;100793.03;4945273;28;100685;-57
2021/03/27 13:54:40;;;;;;;1.60;0.60;;;12.10;56.70;;;6.71;100.00;100810.91;4940003;28;100146;-57
2021/03/27 13:58:09;;;;;;;0.73;0.47;;;11.40;64.50;;;6.89;100.00;100828.06;4923127;28;101082;-57
2021/03/27 14:01:27;;;;;;;1.23;0.53;;;10.60;71.00;;;6.92;100.00;100819.88;4947447;28;100610;-57
2021/03/27 14:04:48;;;;;;;2.23;0.43;;;10.40;76.90;;;6.65;100.00;100841.50;4939977;28;100192;-57
2021/03/27 14:08:07;;;;;;;1.30;0.47;;;10.50;81.50;;;7.04;100.00;100853.47;4943190;28;100066;-57
2021/03/27 14:11:27;;;;;;;3.60;0.50;;;10.50;83.90;;;7.03;100.00;100846.47;4947837;28;100568;-58
2021/03/27 14:14:46;;;;;;;0.23;0.20;;;10.50;84.70;;;6.99;100.00;100873.41;4947422;28;100333;-56
2021/03/27 14:18:13;;;;;;;0.40;0.40;;;10.40;84.60;;;6.94;100.00;100871.09;4945936;28;100138;-56
2021/03/27 14:25:41;;;;;;;0.77;0.30;;;10.00;83.50;;;6.72;100.00;100895.88;4860021;28;100552;-57
2021/03/27 14:29:03;;;;;;;1.90;0.43;;;9.70;81.50;;;6.77;100.00;100898.19;4941442;28;100428;-58
2021/03/27 14:32:32;;;;;;;1.43;0.50;;;9.60;79.20;;;6.81;100.00;100887.19;4945125;28;100511;-56
2021/03/27 14:39:52;;;;;;;1.90;0.33;;;9.40;75.50;;;7.01;100.00;100872.34;4878783;28;100696;-57
2021/03/27 14:43:23;;;;;;;1.63;0.53;;;9.40;73.70;;;7.25;100.00;100871.34;4945809;28;100506;-58
2021/03/27 14:51:04;;;;;;;0.63;0.33;;;9.50;70.20;;;7.33;100.00;100900.84;4868793;28;100446;-55
2021/03/27 14:54:25;;;;;;;2.30;0.70;;;9.60;66.80;;;7.20;100.00;100904.50;4925350;28;100649;-58
2021/03/27 14:58:02;;;;;;;1.47;0.40;;;9.60;64.70;;;7.00;100.00;100915.03;4944902;28;100633;-57
2021/03/27 15:01:39;;;;;;;1.03;0.60;;;9.50;63.70;;;6.74;100.00;100906.41;4947098;28;100491;-57